createdAt,value
2023-03-11T00:03:18.762Z,99.99
2023-03-11T00:08:18.875Z,99.99
2023-03-11T00:13:18.690Z,99.99
2023-03-11T00:18:18.631Z,99.99
2023-03-11T00:23:18.588Z,99.99
2023-03-11T00:28:18.600Z,99.99
2023-03-11T00:33:18.556Z,99.99
2023-03-11T00:38:18.617Z,99.99
2023-03-11T00:43:18.508Z,99.99
2023-03-11T00:48:18.489Z,99.99
2023-03-11T00:53:18.501Z,99.99
2023-03-11T00:58:18.457Z,99.99
2023-03-11T01:03:18.430Z,99.99
2023-03-11T01:08:18.425Z,99.99
2023-03-11T01:13:18.367Z,99.99
2023-03-11T01:18:18.358Z,99.99
2023-03-11T01:23:18.344Z,99.99
2023-03-11T01:28:18.278Z,99.99
2023-03-11T01:33:18.229Z,99.99
2023-03-11T01:38:18.192Z,99.99
2023-03-11T01:43:18.126Z,99.99
2023-03-11T01:48:18.103Z,99.99
2023-03-11T01:53:18.102Z,99.99
2023-03-11T01:58:18.036Z,99.99
2023-03-11T02:03:18.059Z,99.99
2023-03-11T02:08:17.992Z,99.99
2023-03-11T02:13:17.966Z,99.99
2023-03-11T02:18:17.948Z,99.99
2023-03-11T02:23:17.924Z,99.99
2023-03-11T02:28:18.018Z,99.99
2023-03-11T02:33:17.882Z,99.99
2023-03-11T02:38:17.894Z,99.99
2023-03-11T02:43:17.818Z,99.99
2023-03-11T02:48:17.788Z,99.99
2023-03-11T02:53:19.467Z,99.99
2023-03-11T02:58:17.774Z,99.99
2023-03-11T03:03:17.702Z,99.99
2023-03-11T03:08:17.678Z,99.99
2023-03-11T03:13:17.659Z,99.99
2023-03-11T03:18:17.615Z,99.99
2023-03-11T03:23:17.614Z,99.99
2023-03-11T03:28:17.568Z,99.99
2023-03-11T03:33:17.552Z,99.99
2023-03-11T03:38:17.511Z,99.99
2023-03-11T03:43:17.464Z,99.99
2023-03-11T03:48:17.415Z,99.99
2023-03-11T03:53:17.374Z,99.99
2023-03-11T03:58:17.372Z,99.99
2023-03-11T04:03:17.336Z,99.99
2023-03-11T04:08:17.322Z,99.99
2023-03-11T04:13:17.302Z,99.99
2023-03-11T04:18:17.306Z,99.99
2023-03-11T04:23:17.267Z,99.99
2023-03-11T04:28:17.198Z,99.99
2023-03-11T04:33:17.154Z,99.99
2023-03-11T04:38:17.172Z,99.99
2023-03-11T04:43:17.088Z,99.99
2023-03-11T04:48:17.091Z,99.99
2023-03-11T04:53:17.226Z,99.99
2023-03-11T04:58:17.197Z,99.99
2023-03-11T05:03:17.166Z,99.99
2023-03-11T05:08:16.994Z,99.99
2023-03-11T05:13:18.058Z,99.99
2023-03-11T05:18:17.069Z,99.99
2023-03-11T05:23:16.852Z,99.99
2023-03-11T05:28:16.860Z,99.99
2023-03-11T05:33:16.789Z,99.99
2023-03-11T05:38:16.759Z,99.99
2023-03-11T05:43:16.730Z,99.99
2023-03-11T05:48:16.720Z,99.99
2023-03-11T05:53:16.715Z,99.99
2023-03-11T05:58:16.723Z,99.99
2023-03-11T06:03:16.658Z,99.99
2023-03-11T06:08:16.611Z,99.99
2023-03-11T06:13:16.561Z,99.99
2023-03-11T06:18:16.560Z,99.99
2023-03-11T06:23:16.526Z,99.99
2023-03-11T06:28:16.542Z,99.99
2023-03-11T06:33:16.538Z,99.99
2023-03-11T06:38:16.490Z,99.99
2023-03-11T06:43:16.445Z,99.99
2023-03-11T06:48:16.433Z,99.99
2023-03-11T06:53:16.384Z,99.99
2023-03-11T06:58:16.367Z,99.99
2023-03-11T07:03:16.339Z,99.61
2023-03-11T07:08:16.315Z,99.92
2023-03-11T07:13:16.602Z,99.61
2023-03-11T07:18:16.455Z,99.99
2023-03-11T07:23:16.699Z,99.35
2023-03-11T07:28:16.164Z,99.46
2023-03-11T07:33:16.151Z,99.92
2023-03-11T07:38:16.134Z,99.29
2023-03-11T07:43:16.151Z,99.92
2023-03-11T07:48:16.098Z,99.40
2023-03-11T07:53:16.058Z,98.99
2023-03-11T07:58:16.040Z,97.85
2023-03-11T08:03:16.034Z,98.31
2023-03-11T08:08:16.006Z,98.16
2023-03-11T08:13:15.990Z,97.89
2023-03-11T08:18:16.984Z,98.21
2023-03-11T08:23:16.550Z,97.64
2023-03-11T08:28:15.878Z,97.07
2023-03-11T08:33:15.874Z,95.92
2023-03-11T08:38:15.819Z,96.13
2023-03-11T08:43:15.795Z,94.42
2023-03-11T08:48:15.762Z,94.00
2023-03-11T08:53:15.725Z,94.06
2023-03-11T08:58:15.717Z,94.88
2023-03-11T09:03:15.703Z,95.13
2023-03-11T09:08:15.621Z,94.57
2023-03-11T09:13:16.084Z,94.57
2023-03-11T09:18:18.259Z,94.88
2023-03-11T09:23:15.517Z,95.55
2023-03-11T09:28:15.495Z,95.86
2023-03-11T09:33:15.487Z,96.07
2023-03-11T09:38:15.480Z,96.01
2023-03-11T09:43:15.469Z,96.37
2023-03-11T09:48:15.421Z,96.78
2023-03-11T09:53:15.440Z,96.58
2023-03-11T09:58:15.363Z,94.00
2023-03-11T10:03:15.465Z,90.44
2023-03-11T10:08:15.336Z,88.83
2023-03-11T10:13:15.300Z,85.25
2023-03-11T10:18:15.278Z,90.89
2023-03-11T10:23:15.257Z,91.87
2023-03-11T10:28:15.225Z,91.04
2023-03-11T10:33:15.221Z,90.60
2023-03-11T10:38:15.189Z,90.12
2023-03-11T10:43:15.137Z,85.63
2023-03-11T10:48:15.119Z,85.56
2023-03-11T10:53:15.073Z,87.23
2023-03-11T10:58:15.043Z,86.27
2023-03-11T11:03:15.037Z,88.04
2023-03-11T11:08:15.012Z,83.87
2023-03-11T11:13:14.968Z,74.46
2023-03-11T11:18:14.971Z,70.47
2023-03-11T11:23:14.928Z,73.64
2023-03-11T11:28:14.880Z,66.45
2023-03-11T11:33:14.859Z,63.39
2023-03-11T11:38:14.859Z,72.02
2023-03-11T11:43:14.777Z,78.58
2023-03-11T11:48:14.755Z,77.33
2023-03-11T11:53:14.877Z,63.68
2023-03-11T11:58:14.672Z,63.12
2023-03-11T12:03:14.707Z,63.29
2023-03-11T12:08:14.679Z,70.26
2023-03-11T12:13:14.604Z,76.26
2023-03-11T12:18:14.577Z,80.98
2023-03-11T12:23:14.552Z,75.46
2023-03-11T12:28:16.201Z,79.38
2023-03-11T12:33:14.507Z,74.40
2023-03-11T12:38:14.516Z,79.87
2023-03-11T12:43:14.456Z,80.00
2023-03-11T12:48:14.461Z,80.83
2023-03-11T12:53:14.490Z,80.18
2023-03-11T12:58:14.417Z,79.83
2023-03-11T13:03:14.491Z,79.51
2023-03-11T13:08:14.353Z,79.90
2023-03-11T13:13:14.355Z,79.06
2023-03-11T13:18:14.342Z,78.09
2023-03-11T13:23:14.355Z,78.23
2023-03-11T13:28:14.302Z,81.18
2023-03-11T13:33:17.531Z,82.29
2023-03-11T13:38:14.543Z,82.74
2023-03-11T13:43:14.668Z,82.89
2023-03-11T13:48:16.078Z,81.15
2023-03-11T13:53:14.261Z,81.15
2023-03-11T13:58:14.574Z,81.77
2023-03-11T14:03:14.102Z,83.06
2023-03-11T14:08:14.752Z,81.67
2023-03-11T14:13:15.131Z,81.77
2023-03-11T14:18:14.134Z,82.20
2023-03-11T14:23:14.578Z,84.17
2023-03-11T14:28:13.933Z,81.32
2023-03-11T14:33:13.923Z,80.25
2023-03-11T14:38:13.927Z,79.72
2023-03-11T14:43:13.824Z,78.44
2023-03-11T14:48:14.151Z,76.72
2023-03-11T14:53:13.775Z,76.16
2023-03-11T14:58:14.014Z,77.30
2023-03-11T15:03:13.884Z,76.47
2023-03-11T15:08:20.080Z,78.14
2023-03-11T15:13:14.543Z,77.34
2023-03-11T15:18:13.659Z,79.98
2023-03-11T15:23:13.632Z,79.28
2023-03-11T15:28:13.605Z,79.08
2023-03-11T15:33:13.597Z,79.14
2023-03-11T15:38:13.594Z,78.52
2023-03-11T15:43:13.529Z,80.19
2023-03-11T15:48:13.516Z,79.35
2023-03-11T15:53:13.498Z,81.33
2023-03-11T15:58:13.480Z,79.46
2023-03-11T16:03:13.449Z,78.52
2023-03-11T16:08:13.412Z,79.28
2023-03-11T16:13:13.945Z,77.83
2023-03-11T16:18:13.343Z,77.62
2023-03-11T16:23:13.311Z,79.53
2023-03-11T16:28:13.267Z,78.80
2023-03-11T16:33:13.258Z,79.11
2023-03-11T16:38:13.280Z,80.92
2023-03-11T16:43:13.204Z,81.45
2023-03-11T16:48:13.176Z,82.73
2023-03-11T16:53:13.124Z,84.09
2023-03-11T16:58:13.119Z,82.63
2023-03-11T17:03:13.096Z,81.90
2023-03-11T17:08:13.064Z,81.93
2023-03-11T17:13:13.021Z,82.56
2023-03-11T17:18:12.999Z,83.95
2023-03-11T17:23:12.981Z,85.31
2023-03-11T17:28:12.959Z,85.77
2023-03-11T17:33:13.274Z,86.08
2023-03-11T17:38:15.373Z,88.01
2023-03-11T17:43:13.876Z,87.17
2023-03-11T17:48:12.972Z,87.48
2023-03-11T17:53:12.818Z,87.07
2023-03-11T17:58:12.853Z,87.38
2023-03-11T18:03:12.829Z,87.84
2023-03-11T18:08:12.816Z,87.52
2023-03-11T18:13:12.732Z,88.46
2023-03-11T18:18:12.662Z,88.26
2023-03-11T18:23:12.713Z,88.50
2023-03-11T18:28:12.687Z,87.98
2023-03-11T18:33:12.569Z,88.29
2023-03-11T18:38:12.679Z,88.29
2023-03-11T18:43:12.756Z,88.92
2023-03-11T18:48:13.199Z,89.03
2023-03-11T18:53:12.481Z,89.07
2023-03-11T18:58:12.673Z,89.17
2023-03-11T19:03:12.400Z,90.11
2023-03-11T19:08:13.511Z,90.16
2023-03-11T19:13:12.449Z,90.84
2023-03-11T19:18:14.215Z,90.05
2023-03-11T19:23:12.312Z,90.78
2023-03-11T19:28:13.638Z,90.78
2023-03-11T19:33:12.297Z,90.68
2023-03-11T19:38:14.228Z,90.78
2023-03-11T19:43:12.272Z,90.78
2023-03-11T19:48:13.317Z,91.41
2023-03-11T19:53:12.164Z,90.68
2023-03-11T19:58:12.238Z,90.05
2023-03-11T20:03:12.110Z,89.28
2023-03-11T20:08:12.130Z,88.65
2023-03-11T20:13:12.090Z,87.81
2023-03-11T20:18:12.049Z,88.23
2023-03-11T20:23:12.038Z,88.23
2023-03-11T20:28:11.973Z,87.29
2023-03-11T20:33:12.042Z,88.02
2023-03-11T20:38:13.901Z,87.39
2023-03-11T20:43:12.749Z,87.50
2023-03-11T20:48:12.063Z,87.92
2023-03-11T20:53:11.993Z,86.98
2023-03-11T20:58:11.925Z,86.66
2023-03-11T21:03:12.309Z,87.08
2023-03-11T21:08:13.774Z,86.98
2023-03-11T21:13:11.776Z,87.50
2023-03-11T21:18:11.747Z,86.55
2023-03-11T21:23:11.795Z,85.93
2023-03-11T21:28:11.885Z,85.93
2023-03-11T21:33:11.815Z,85.72
2023-03-11T21:38:11.725Z,86.14
2023-03-11T21:43:11.524Z,84.88
2023-03-11T21:48:11.529Z,85.19
2023-03-11T21:53:11.574Z,84.67
2023-03-11T21:58:11.453Z,84.67
2023-03-11T22:03:11.551Z,83.83
2023-03-11T22:08:11.454Z,83.73
2023-03-11T22:13:11.560Z,83.83
2023-03-11T22:18:11.274Z,83.21
2023-03-11T22:23:11.307Z,83.73
2023-03-11T22:28:11.353Z,84.25
2023-03-11T22:33:11.204Z,83.83
2023-03-11T22:38:11.160Z,83.73
2023-03-11T22:43:11.135Z,83.31
2023-03-11T22:48:11.116Z,83.62
2023-03-11T22:53:11.098Z,83.42
2023-03-11T22:58:11.084Z,82.58
2023-03-11T23:03:11.226Z,83.31
2023-03-11T23:08:11.017Z,82.68
2023-03-11T23:13:11.012Z,82.26
2023-03-11T23:18:10.970Z,82.16
2023-03-11T23:23:10.937Z,81.63
2023-03-11T23:28:10.882Z,81.85
2023-03-11T23:33:10.850Z,81.95
2023-03-11T23:38:10.796Z,81.74
2023-03-11T23:43:10.797Z,81.74
2023-03-11T23:48:10.751Z,81.32
2023-03-11T23:53:10.722Z,80.80
2023-03-11T23:58:10.682Z,81.22
